createdAt,value
2023-04-18T00:29:38.031Z,52.70
2023-04-18T00:32:04.809Z,51.10
2023-04-18T00:34:31.473Z,50.80
2023-04-18T00:36:58.120Z,50.50
2023-04-18T00:39:26.014Z,50.10
2023-04-18T00:41:53.962Z,49.50
2023-04-18T00:44:20.714Z,49.00
2023-04-18T00:46:47.463Z,48.80
2023-04-18T00:49:14.190Z,48.60
2023-04-18T00:51:41.274Z,48.40
2023-04-18T00:54:08.649Z,48.20
2023-04-18T00:56:36.169Z,48.00
2023-04-18T00:59:03.808Z,47.90
2023-04-18T01:01:30.870Z,47.80
2023-04-18T01:03:57.645Z,47.10
2023-04-18T01:08:51.998Z,47.00
2023-04-18T01:28:47.656Z,46.30
2023-04-18T01:31:14.321Z,44.80
2023-04-18T01:33:41.369Z,44.70
2023-04-18T01:36:08.124Z,44.80
2023-04-18T01:43:29.456Z,44.40
2023-04-18T01:50:50.492Z,44.10
2023-04-18T01:53:17.911Z,43.90
2023-04-18T01:55:44.565Z,44.00
2023-04-18T01:58:11.260Z,44.30
2023-04-18T02:00:38.085Z,44.00
2023-04-18T02:03:04.912Z,43.80
2023-04-18T02:05:31.735Z,44.00
2023-04-18T02:07:59.500Z,44.20
2023-04-18T02:10:26.136Z,44.20
2023-04-18T02:12:52.798Z,44.20
2023-04-18T02:15:19.661Z,44.20
2023-04-18T02:17:46.396Z,44.20
2023-04-18T02:20:13.428Z,44.30
2023-04-18T02:22:40.306Z,44.10
2023-04-18T02:25:07.495Z,44.30
2023-04-18T02:27:34.236Z,44.10
2023-04-18T02:30:00.911Z,44.00
2023-04-18T02:32:27.601Z,44.10
2023-04-18T02:34:54.354Z,44.00
2023-04-18T02:37:21.353Z,43.70
2023-04-18T02:39:48.062Z,43.90
2023-04-18T02:42:14.843Z,43.70
2023-04-18T02:44:41.497Z,43.80
2023-04-18T02:47:08.176Z,43.80
2023-04-18T02:49:34.824Z,43.80
2023-04-18T02:52:01.611Z,44.00
2023-04-18T02:54:28.277Z,43.90
2023-04-18T02:56:55.298Z,44.10
2023-04-18T02:59:21.922Z,44.10
2023-04-18T03:01:48.705Z,44.20
2023-04-18T03:04:15.948Z,44.40
2023-04-18T03:06:42.866Z,44.20
2023-04-18T03:09:09.547Z,44.10
2023-04-18T03:11:36.328Z,44.20
2023-04-18T03:21:24.975Z,44.20
2023-04-18T03:23:53.136Z,45.10
2023-04-18T03:26:19.988Z,44.60
2023-04-18T03:28:46.637Z,44.70
2023-04-18T03:31:13.353Z,44.60
2023-04-18T03:33:42.268Z,44.50
2023-04-18T03:36:09.154Z,44.60
2023-04-18T03:38:35.849Z,44.70
2023-04-18T03:41:02.566Z,44.90
2023-04-18T03:45:56.529Z,44.70
2023-04-18T04:05:34.714Z,44.70
2023-04-18T04:27:53.609Z,44.70
2023-04-18T04:30:21.535Z,45.90
2023-04-18T04:32:48.227Z,46.00
2023-04-18T04:35:16.068Z,46.30
2023-04-18T04:37:44.072Z,46.50
2023-04-18T04:40:11.220Z,46.50
2023-04-18T04:42:40.971Z,46.60
2023-04-18T04:45:12.458Z,46.60
2023-04-18T04:47:39.168Z,46.80
2023-04-18T04:50:07.751Z,46.90
2023-04-18T04:52:34.488Z,47.00
2023-04-18T04:55:01.217Z,47.10
2023-04-18T04:57:27.942Z,47.20
2023-04-18T04:59:54.649Z,47.30
2023-04-18T05:02:23.308Z,47.50
2023-04-18T05:04:51.274Z,47.60
2023-04-18T05:07:18.184Z,48.10
2023-04-18T05:09:44.946Z,47.70
2023-04-18T05:12:11.752Z,47.90
2023-04-18T05:14:38.482Z,48.00
2023-04-18T05:17:05.412Z,48.20
2023-04-18T05:19:32.080Z,48.40
2023-04-18T05:21:58.885Z,48.60
2023-04-18T05:24:25.681Z,48.70
2023-04-18T05:26:52.565Z,49.00
2023-04-18T05:29:19.422Z,49.10
2023-04-18T05:31:46.079Z,49.30
2023-04-18T05:34:12.984Z,49.80
2023-04-18T05:36:40.110Z,49.70
2023-04-18T05:39:07.113Z,49.50
2023-04-18T05:41:33.827Z,49.50
2023-04-18T05:44:05.303Z,49.60
2023-04-18T05:46:33.051Z,49.80
2023-04-18T05:48:59.845Z,50.00
2023-04-18T05:51:26.794Z,51.90
2023-04-18T05:53:53.427Z,51.60
2023-04-18T05:56:22.412Z,51.10
2023-04-18T05:58:51.241Z,50.10
2023-04-18T06:01:21.369Z,50.10
2023-04-18T06:16:06.424Z,50.00
2023-04-18T06:18:34.264Z,48.40
2023-04-18T06:21:01.039Z,48.60
2023-04-18T06:40:40.677Z,48.70
2023-04-18T06:43:07.607Z,48.20
2023-04-18T06:45:34.898Z,46.80
2023-04-18T06:48:03.819Z,46.80
2023-04-18T06:50:31.043Z,46.70
2023-04-18T06:52:57.739Z,47.00
2023-04-18T06:55:24.492Z,47.00
2023-04-18T06:57:51.282Z,47.50
2023-04-18T07:00:19.368Z,47.50
2023-04-18T07:02:46.620Z,47.80
2023-04-18T07:05:13.503Z,47.90
2023-04-18T07:07:40.312Z,48.10
2023-04-18T07:10:09.539Z,48.20
2023-04-18T07:12:36.350Z,48.30
2023-04-18T07:15:04.276Z,48.80
2023-04-18T07:17:31.376Z,49.00
2023-04-18T07:19:58.538Z,49.10
2023-04-18T07:22:25.460Z,49.20
2023-04-18T07:24:52.102Z,49.40
2023-04-18T07:27:18.958Z,49.20
2023-04-18T07:29:45.722Z,49.50
2023-04-18T07:32:12.521Z,50.20
2023-04-18T07:34:40.452Z,49.40
2023-04-18T07:37:07.262Z,49.20
2023-04-18T07:39:36.118Z,49.80
2023-04-18T07:42:06.380Z,49.70
2023-04-18T07:44:35.611Z,49.40
2023-04-18T07:47:02.741Z,49.60
2023-04-18T07:49:29.589Z,49.50
2023-04-18T07:51:56.428Z,50.00
2023-04-18T07:54:23.168Z,49.40
2023-04-18T07:56:49.826Z,49.10
2023-04-18T07:59:16.913Z,49.20
2023-04-18T08:01:43.679Z,50.00
2023-04-18T08:04:10.731Z,49.90
2023-04-18T08:06:37.621Z,49.40
2023-04-18T08:09:05.745Z,48.80
2023-04-18T08:11:33.472Z,49.40
2023-04-18T08:14:00.623Z,48.90
2023-04-18T08:16:28.484Z,48.60
2023-04-18T08:18:55.209Z,49.00
2023-04-18T08:21:21.944Z,49.20
2023-04-18T08:23:48.753Z,48.70
2023-04-18T08:26:15.732Z,49.70
2023-04-18T08:28:44.142Z,49.10
2023-04-18T08:31:14.158Z,49.10
2023-04-18T08:33:41.447Z,49.50
2023-04-18T08:36:08.521Z,49.40
2023-04-18T08:38:35.474Z,50.20
2023-04-18T08:41:02.282Z,49.70
2023-04-18T08:43:31.099Z,49.20
2023-04-18T08:45:59.567Z,49.00
2023-04-18T08:48:28.301Z,49.00
2023-04-18T08:50:58.721Z,49.60
2023-04-18T08:53:26.647Z,50.00
2023-04-18T08:55:57.915Z,48.40
2023-04-18T08:58:27.651Z,48.50
2023-04-18T09:00:55.000Z,48.40
2023-04-18T09:03:41.518Z,48.60
2023-04-18T09:06:10.140Z,48.00
2023-04-18T09:08:36.793Z,48.20
2023-04-18T09:11:29.530Z,48.50
2023-04-18T09:13:58.649Z,48.70
2023-04-18T09:16:27.668Z,49.10
2023-04-18T09:19:13.064Z,48.90
2023-04-18T09:21:42.208Z,48.30
2023-04-18T09:24:18.217Z,48.70
2023-04-18T09:26:44.954Z,49.00
2023-04-18T09:29:12.081Z,48.90
2023-04-18T09:31:54.478Z,49.10
2023-04-18T09:34:25.067Z,48.90
2023-04-18T09:37:11.388Z,49.40
2023-04-18T09:39:43.515Z,49.60
2023-04-18T09:42:10.724Z,49.00
2023-04-18T09:44:38.720Z,49.10
2023-04-18T09:47:07.712Z,49.10
2023-04-18T09:49:35.202Z,49.10
2023-04-18T09:52:06.277Z,49.20
2023-04-18T09:54:35.625Z,48.90
2023-04-18T11:00:23.503Z,49.30
2023-04-18T11:02:57.960Z,49.50
2023-04-18T11:05:29.367Z,48.60
2023-04-18T11:07:57.115Z,47.50
2023-04-18T11:10:26.622Z,48.20
2023-04-18T11:12:54.308Z,48.00
2023-04-18T11:15:23.220Z,47.50
2023-04-18T11:17:58.588Z,47.80
2023-04-18T11:20:25.709Z,48.20
2023-04-18T11:22:53.547Z,48.00
2023-04-18T11:25:26.913Z,47.60
2023-04-18T11:27:56.568Z,47.60
2023-04-18T11:30:24.465Z,47.40
2023-04-18T11:32:51.828Z,47.70
2023-04-18T11:35:18.896Z,48.10
2023-04-18T11:37:45.952Z,47.80
2023-04-18T11:40:14.783Z,47.90
2023-04-18T11:42:41.940Z,48.20
2023-04-18T11:45:13.497Z,47.90
2023-04-18T11:47:42.670Z,47.90
2023-04-18T11:50:12.136Z,47.60
2023-04-18T12:58:01.419Z,48.00
2023-04-18T13:00:32.503Z,49.20
2023-04-18T13:02:59.771Z,49.10
2023-04-18T13:05:31.606Z,49.10
2023-04-18T13:08:15.392Z,48.70
2023-04-18T13:10:43.641Z,48.40
2023-04-18T13:13:10.416Z,48.90
2023-04-18T13:15:37.177Z,48.30
2023-04-18T13:23:02.509Z,48.70
2023-04-18T13:25:32.045Z,49.20
2023-04-18T13:28:00.726Z,48.70
2023-04-18T13:30:27.716Z,48.80
2023-04-18T13:32:55.144Z,48.80
2023-04-18T13:35:23.065Z,48.80
2023-04-18T13:37:49.776Z,48.40
2023-04-18T13:40:16.553Z,48.70
2023-04-18T13:42:43.315Z,49.00
2023-04-18T13:45:10.545Z,48.70
2023-04-18T13:47:37.583Z,48.40
2023-04-18T13:50:05.562Z,48.40
2023-04-18T13:52:32.419Z,48.40
2023-04-18T13:54:59.162Z,48.20
2023-04-18T13:57:25.877Z,48.50
2023-04-18T13:59:52.637Z,48.50
2023-04-18T14:02:19.511Z,48.30
2023-04-18T14:04:46.601Z,48.40
2023-04-18T14:07:13.496Z,48.60
2023-04-18T14:09:40.160Z,48.50
2023-04-18T15:57:55.770Z,48.20
2023-04-18T16:00:23.255Z,44.50
2023-04-18T16:10:12.836Z,45.10
2023-04-18T16:12:40.252Z,44.80
2023-04-18T16:15:09.131Z,44.60
2023-04-18T16:17:36.673Z,44.30
2023-04-18T16:20:03.904Z,43.70
2023-04-18T16:22:30.765Z,43.80
2023-04-18T16:24:57.457Z,44.10
2023-04-18T16:27:24.213Z,43.50
2023-04-18T16:29:50.945Z,42.50
2023-04-18T16:32:17.707Z,42.20
2023-04-18T16:34:44.366Z,42.50
2023-04-18T16:37:12.242Z,42.80
2023-04-18T16:39:39.059Z,42.90
2023-04-18T16:42:05.849Z,43.20
2023-04-18T16:44:33.200Z,43.90
2023-04-18T16:47:00.081Z,44.00
2023-04-18T16:49:27.048Z,44.20
2023-04-18T16:51:53.854Z,44.10
2023-04-18T16:54:20.554Z,43.40
2023-04-18T16:56:47.482Z,43.50
2023-04-18T16:59:14.258Z,43.70
2023-04-18T17:01:40.952Z,43.80
2023-04-18T17:04:07.712Z,43.10
2023-04-18T17:06:34.480Z,43.40
2023-04-18T17:09:02.208Z,43.60
2023-04-18T17:11:30.052Z,42.70
2023-04-18T17:13:56.707Z,43.10
2023-04-18T17:16:23.467Z,43.30
2023-04-18T20:55:51.788Z,43.50
2023-04-18T20:58:18.560Z,42.90
2023-04-18T21:00:45.354Z,43.00
2023-04-18T21:03:16.223Z,43.00
2023-04-18T21:05:44.198Z,43.30
2023-04-18T21:08:11.392Z,43.40
2023-04-18T21:10:38.254Z,43.60
2023-04-18T21:13:05.060Z,43.50
2023-04-18T21:17:58.981Z,43.50
2023-04-18T21:20:25.806Z,43.60
2023-04-18T21:22:52.518Z,43.70
2023-04-18T21:25:21.204Z,43.60
2023-04-18T21:27:49.357Z,43.50
2023-04-18T21:30:16.226Z,43.70
2023-04-18T21:32:42.983Z,43.70
2023-04-18T21:35:10.128Z,43.70
2023-04-18T21:37:37.543Z,43.70
2023-04-18T21:40:04.828Z,43.60
2023-04-18T21:42:31.614Z,43.70
2023-04-18T21:44:58.261Z,44.00
2023-04-18T21:47:25.897Z,44.00
2023-04-18T21:49:52.708Z,44.10
2023-04-18T21:52:19.371Z,44.10
2023-04-18T21:54:46.223Z,44.20
2023-04-18T21:57:12.968Z,44.30
2023-04-18T21:59:39.697Z,44.30
2023-04-18T22:02:06.527Z,44.50
2023-04-18T22:04:33.875Z,44.50
2023-04-18T22:07:00.856Z,44.70
2023-04-18T22:09:27.572Z,44.90
2023-04-18T22:11:57.053Z,44.90
2023-04-18T22:14:24.738Z,45.30
2023-04-18T22:21:46.422Z,44.80
2023-04-18T22:24:13.288Z,44.80
2023-04-18T22:26:40.764Z,45.10
2023-04-18T22:29:07.608Z,45.30
2023-04-18T22:31:34.312Z,45.30
2023-04-18T22:34:01.036Z,45.50
2023-04-18T22:36:27.898Z,45.50
2023-04-18T22:38:54.632Z,45.50
2023-04-18T22:41:21.291Z,45.70
2023-04-18T22:43:48.022Z,45.70
2023-04-18T22:46:14.730Z,45.70
2023-04-18T22:48:41.401Z,46.10
2023-04-18T22:51:08.099Z,45.90
2023-04-18T22:58:29.699Z,46.00
2023-04-18T23:00:57.071Z,46.30
2023-04-18T23:03:23.924Z,46.40
2023-04-18T23:05:50.851Z,46.40
2023-04-18T23:08:20.528Z,46.40
2023-04-18T23:10:47.184Z,46.40
2023-04-18T23:13:14.582Z,46.40
2023-04-18T23:15:41.318Z,46.60
2023-04-18T23:18:08.056Z,46.50
2023-04-18T23:20:34.908Z,46.60
2023-04-18T23:23:01.699Z,46.60
2023-04-18T23:27:55.562Z,46.60
2023-04-18T23:30:26.196Z,46.80
2023-04-18T23:32:52.982Z,46.90
2023-04-18T23:35:19.652Z,46.90
2023-04-18T23:37:46.385Z,47.00
2023-04-18T23:40:13.134Z,47.10
2023-04-18T23:42:39.774Z,47.20
2023-04-18T23:45:07.019Z,47.30
2023-04-18T23:47:33.686Z,47.30
2023-04-18T23:50:00.374Z,47.40
2023-04-18T23:52:27.228Z,47.60
2023-04-18T23:54:53.951Z,47.70
2023-04-18T23:57:20.628Z,47.90
2023-04-18T23:59:47.244Z,47.90
